Time;durP1;ratioP1;P1;durP2;ratioP2;P2;SDS_P1;SDS_P2;PMS_P1;PMS_P2;Temp;Humidity;BMP_temperature;BMP_pressure;BME280_temperature;BME280_humidity;BME280_pressure;Samples;Min_cycle;Max_cycle;Signal;HPM_P1;HPM_P2
2021/11/07 00:01:49;;;;;;;15.32;10.95;;;;;;;;;;6189322;28;20072;-65
2021/11/07 00:04:59;;;;;;;20.02;9.95;;;;;;;;;;6201278;28;20049;-66
2021/11/07 00:08:11;;;;;;;14.10;10.20;;;;;;;;;;6193976;28;20046;-66
2021/11/07 00:11:23;;;;;;;22.58;11.70;;;;;;;;;;6195465;28;20053;-66
2021/11/07 00:14:26;;;;;;;17.42;11.45;;;;;;;;;;6197978;28;20073;-66
2021/11/07 00:17:30;;;;;;;17.23;11.40;;;;;;;;;;6182648;28;20121;-66
2021/11/07 00:20:32;;;;;;;18.70;11.13;;;;;;;;;;6190602;28;20140;-67
2021/11/07 00:23:51;;;;;;;18.42;12.43;;;;;;;;;;6196747;28;20061;-66
2021/11/07 00:26:58;;;;;;;20.13;12.20;;;;;;;;;;6191758;28;20217;-66
2021/11/07 00:30:13;;;;;;;18.83;12.00;;;;;;;;;;6206329;28;20132;-66
2021/11/07 00:33:21;;;;;;;18.73;11.80;;;;;;;;;;6197400;28;20060;-66
2021/11/07 00:36:28;;;;;;;21.98;12.05;;;;;;;;;;6190040;28;20137;-67
2021/11/07 00:39:38;;;;;;;16.23;11.82;;;;;;;;;;6201815;28;20047;-66
2021/11/07 00:42:47;;;;;;;18.30;12.00;;;;;;;;;;6193348;28;20058;-66
2021/11/07 00:46:02;;;;;;;16.40;11.73;;;;;;;;;;6182509;28;20038;-67
2021/11/07 00:49:06;;;;;;;16.13;11.55;;;;;;;;;;6197496;28;20046;-66
2021/11/07 00:52:18;;;;;;;17.83;11.45;;;;;;;;;;6205483;28;20402;-66
2021/11/07 00:55:24;;;;;;;19.13;12.25;;;;;;;;;;6202092;28;20061;-67
2021/11/07 00:58:32;;;;;;;19.13;11.73;;;;;;;;;;6211342;28;20057;-66
2021/11/07 01:01:38;;;;;;;15.13;10.63;;;;;;;;;;6188288;28;20042;-66
2021/11/07 01:04:44;;;;;;;16.13;10.82;;;;;;;;;;6207044;28;20073;-66
2021/11/07 01:07:46;;;;;;;15.75;11.02;;;;;;;;;;6185560;28;20038;-66
2021/11/07 01:10:47;;;;;;;16.27;11.18;;;;;;;;;;6184959;28;20050;-67
2021/11/07 01:13:49;;;;;;;15.00;10.38;;;;;;;;;;6202024;28;20544;-66
2021/11/07 01:16:52;;;;;;;18.30;11.07;;;;;;;;;;6182538;28;20120;-66
2021/11/07 01:19:56;;;;;;;16.73;9.90;;;;;;;;;;6196646;28;20039;-66
2021/11/07 01:23:01;;;;;;;17.50;10.45;;;;;;;;;;6190866;28;20052;-66
2021/11/07 01:26:07;;;;;;;14.85;9.43;;;;;;;;;;6194081;28;20053;-66
2021/11/07 01:29:13;;;;;;;16.45;9.85;;;;;;;;;;6206292;28;20050;-66
2021/11/07 01:32:18;;;;;;;14.43;9.40;;;;;;;;;;6197959;28;20042;-67
2021/11/07 01:35:22;;;;;;;15.65;9.70;;;;;;;;;;6197753;28;20058;-67
2021/11/07 01:38:27;;;;;;;12.35;9.13;;;;;;;;;;6204619;28;20059;-67
2021/11/07 01:41:32;;;;;;;15.13;9.35;;;;;;;;;;6193408;28;20043;-67
2021/11/07 01:44:38;;;;;;;15.82;9.85;;;;;;;;;;6206531;28;20053;-66
2021/11/07 01:47:46;;;;;;;20.92;9.75;;;;;;;;;;6189804;28;20077;-66
2021/11/07 01:50:53;;;;;;;14.93;8.45;;;;;;;;;;6194704;28;20669;-67
2021/11/07 01:54:05;;;;;;;12.65;8.77;;;;;;;;;;6207195;28;20042;-66
2021/11/07 01:57:06;;;;;;;12.88;8.60;;;;;;;;;;6197193;28;20050;-66
2021/11/07 02:00:09;;;;;;;14.38;8.38;;;;;;;;;;6203011;28;20054;-67
2021/11/07 02:03:13;;;;;;;13.73;8.25;;;;;;;;;;6196012;28;20096;-66
2021/11/07 02:06:14;;;;;;;14.68;7.70;;;;;;;;;;6195893;28;21279;-66
2021/11/07 02:09:16;;;;;;;13.13;7.95;;;;;;;;;;6200611;28;20054;-66
2021/11/07 02:12:18;;;;;;;11.48;8.23;;;;;;;;;;6195917;28;20054;-66
2021/11/07 02:15:21;;;;;;;11.15;7.72;;;;;;;;;;6203352;28;20046;-67
2021/11/07 02:18:24;;;;;;;12.60;7.88;;;;;;;;;;6191535;28;20069;-67
2021/11/07 02:21:28;;;;;;;10.60;7.60;;;;;;;;;;6193542;28;20046;-66
2021/11/07 02:24:29;;;;;;;12.65;7.75;;;;;;;;;;6206757;28;21106;-66
2021/11/07 02:27:31;;;;;;;12.73;8.20;;;;;;;;;;6197270;28;20043;-66
2021/11/07 02:30:33;;;;;;;10.60;6.97;;;;;;;;;;6190653;28;20137;-67
2021/11/07 02:33:35;;;;;;;11.50;7.95;;;;;;;;;;6192284;28;20041;-66
2021/11/07 02:36:37;;;;;;;14.80;7.90;;;;;;;;;;6188846;28;20536;-66
2021/11/07 02:39:39;;;;;;;8.98;7.05;;;;;;;;;;6199028;28;20061;-66
2021/11/07 02:42:43;;;;;;;13.43;7.72;;;;;;;;;;6189227;28;20057;-66
2021/11/07 02:45:44;;;;;;;;;;;;;;;;;;6192253;28;20050;-66
2021/11/07 02:48:47;;;;;;;10.13;6.55;;;;;;;;;;6198423;28;19922;-66
2021/11/07 02:51:50;;;;;;;12.55;7.47;;;;;;;;;;6194412;28;20075;-66
2021/11/07 02:54:52;;;;;;;13.73;7.72;;;;;;;;;;6200561;28;20056;-66
2021/11/07 02:57:54;;;;;;;13.82;7.03;;;;;;;;;;6202504;28;20524;-66
2021/11/07 03:00:56;;;;;;;11.52;6.88;;;;;;;;;;6194946;28;20161;-66
2021/11/07 03:04:01;;;;;;;9.85;7.35;;;;;;;;;;6195938;28;20133;-66
2021/11/07 03:07:05;;;;;;;9.77;6.78;;;;;;;;;;6193438;28;20050;-66
2021/11/07 03:10:06;;;;;;;10.27;7.15;;;;;;;;;;6200691;28;20058;-67
2021/11/07 03:13:09;;;;;;;11.25;7.05;;;;;;;;;;6202622;28;20045;-65
2021/11/07 03:16:12;;;;;;;9.75;6.78;;;;;;;;;;6193587;28;20132;-66
2021/11/07 03:19:14;;;;;;;9.75;6.60;;;;;;;;;;6202690;28;20057;-67
2021/11/07 03:22:18;;;;;;;11.32;6.85;;;;;;;;;;6204547;28;20042;-66
2021/11/07 03:25:19;;;;;;;11.40;6.60;;;;;;;;;;6203123;28;20167;-67
2021/11/07 03:28:20;;;;;;;13.25;6.50;;;;;;;;;;6213193;28;20099;-66
2021/11/07 03:31:27;;;;;;;10.75;6.45;;;;;;;;;;6192844;28;20634;-66
2021/11/07 03:34:31;;;;;;;9.13;6.25;;;;;;;;;;6202968;28;20041;-66
2021/11/07 03:37:43;;;;;;;8.75;5.90;;;;;;;;;;6202235;28;20061;-66
2021/11/07 03:40:44;;;;;;;10.32;6.50;;;;;;;;;;6196358;28;20058;-66
2021/11/07 03:43:46;;;;;;;9.40;6.07;;;;;;;;;;6211333;28;20121;-66
2021/11/07 03:46:48;;;;;;;10.38;5.78;;;;;;;;;;6190258;28;20103;-66
2021/11/07 03:49:50;;;;;;;9.57;6.13;;;;;;;;;;6197238;28;20084;-66
2021/11/07 03:52:53;;;;;;;8.23;6.30;;;;;;;;;;6198891;28;20103;-66
2021/11/07 03:55:54;;;;;;;9.20;6.30;;;;;;;;;;6204557;28;20054;-66
2021/11/07 03:58:55;;;;;;;10.75;6.15;;;;;;;;;;6210675;28;20042;-66
2021/11/07 04:01:57;;;;;;;8.68;5.53;;;;;;;;;;6202043;28;20527;-67
2021/11/07 04:04:59;;;;;;;8.60;5.45;;;;;;;;;;6204323;28;20144;-67
2021/11/07 04:08:02;;;;;;;7.78;5.40;;;;;;;;;;6191734;28;20103;-66
2021/11/07 04:11:03;;;;;;;9.02;5.90;;;;;;;;;;6198878;28;20447;-67
2021/11/07 04:14:06;;;;;;;9.15;5.60;;;;;;;;;;6205768;28;20058;-67
2021/11/07 04:17:08;;;;;;;8.55;5.60;;;;;;;;;;6191292;28;20258;-66
2021/11/07 04:20:10;;;;;;;8.25;5.72;;;;;;;;;;6193531;28;20050;-66
2021/11/07 04:23:13;;;;;;;9.15;5.70;;;;;;;;;;6202304;28;20046;-65
2021/11/07 04:26:14;;;;;;;9.52;5.50;;;;;;;;;;6195294;28;20041;-66
2021/11/07 04:29:16;;;;;;;9.68;5.25;;;;;;;;;;6209257;28;20482;-66
2021/11/07 04:32:17;;;;;;;8.00;5.40;;;;;;;;;;6190603;28;20111;-65
2021/11/07 04:35:19;;;;;;;8.32;5.43;;;;;;;;;;6196462;28;20603;-66
2021/11/07 04:38:21;;;;;;;13.52;6.07;;;;;;;;;;6200758;28;20057;-66
2021/11/07 04:41:23;;;;;;;10.35;5.60;;;;;;;;;;6197886;28;20100;-66
2021/11/07 04:44:24;;;;;;;9.60;5.63;;;;;;;;;;6213154;28;20169;-66
2021/11/07 04:47:26;;;;;;;9.75;5.63;;;;;;;;;;6188310;28;20042;-67
2021/11/07 04:50:27;;;;;;;8.95;5.93;;;;;;;;;;6201874;28;20052;-67
2021/11/07 04:53:30;;;;;;;7.78;6.18;;;;;;;;;;6206997;28;20042;-67
2021/11/07 04:56:31;;;;;;;8.38;6.22;;;;;;;;;;6195301;28;20133;-66
2021/11/07 04:59:33;;;;;;;7.38;5.53;;;;;;;;;;6205953;28;20060;-66
2021/11/07 05:02:34;;;;;;;8.65;5.20;;;;;;;;;;6193886;28;20046;-67
2021/11/07 05:05:36;;;;;;;8.48;5.28;;;;;;;;;;6195827;28;20124;-67
2021/11/07 05:08:39;;;;;;;7.38;5.28;;;;;;;;;;6218006;28;20046;-66
2021/11/07 05:11:42;;;;;;;8.70;5.57;;;;;;;;;;6200408;28;20590;-67
2021/11/07 05:14:44;;;;;;;8.53;5.40;;;;;;;;;;6206288;28;20062;-66
2021/11/07 05:17:45;;;;;;;6.75;5.15;;;;;;;;;;6194181;28;20185;-66
2021/11/07 05:20:47;;;;;;;8.52;5.25;;;;;;;;;;6202574;28;20181;-66
2021/11/07 05:23:49;;;;;;;7.20;5.10;;;;;;;;;;6215379;28;20111;-66
2021/11/07 05:26:51;;;;;;;8.25;5.43;;;;;;;;;;6194328;28;20406;-66
2021/11/07 05:29:52;;;;;;;8.48;5.30;;;;;;;;;;6204983;28;20427;-65
2021/11/07 05:32:54;;;;;;;7.65;5.10;;;;;;;;;;6191430;28;20608;-66
2021/11/07 05:35:55;;;;;;;8.88;4.95;;;;;;;;;;6195802;28;20049;-66
2021/11/07 05:38:58;;;;;;;6.15;4.57;;;;;;;;;;6202789;28;20092;-66
2021/11/07 05:41:59;;;;;;;6.78;4.60;;;;;;;;;;6209859;28;20204;-65
2021/11/07 05:45:01;;;;;;;7.53;5.32;;;;;;;;;;6214109;28;20188;-65
2021/11/07 05:48:04;;;;;;;7.13;4.70;;;;;;;;;;6205415;28;20044;-66
2021/11/07 05:51:05;;;;;;;6.30;4.63;;;;;;;;;;6201826;28;20065;-65
2021/11/07 05:54:08;;;;;;;5.15;4.15;;;;;;;;;;6218819;28;20050;-65
2021/11/07 05:57:09;;;;;;;7.40;4.72;;;;;;;;;;6196710;28;20043;-65
2021/11/07 06:00:13;;;;;;;6.30;4.40;;;;;;;;;;6208424;28;20175;-66
2021/11/07 06:03:14;;;;;;;5.67;4.37;;;;;;;;;;6204693;28;20188;-65
2021/11/07 06:06:16;;;;;;;6.55;3.50;;;;;;;;;;6193971;28;20188;-65
2021/11/07 06:09:19;;;;;;;6.43;3.92;;;;;;;;;;6205663;28;20068;-65
2021/11/07 06:12:20;;;;;;;6.38;3.78;;;;;;;;;;6197466;28;20041;-65
2021/11/07 06:15:22;;;;;;;6.05;3.53;;;;;;;;;;6200202;28;20096;-66
2021/11/07 06:18:23;;;;;;;4.88;3.45;;;;;;;;;;6192156;28;20038;-65
2021/11/07 06:21:25;;;;;;;7.88;3.35;;;;;;;;;;6198453;28;20583;-65
2021/11/07 06:24:28;;;;;;;6.55;3.38;;;;;;;;;;6200116;28;20043;-65
2021/11/07 06:27:30;;;;;;;5.33;3.67;;;;;;;;;;6193322;28;20046;-65
2021/11/07 06:30:32;;;;;;;8.30;3.97;;;;;;;;;;6192746;28;20121;-66
2021/11/07 06:33:33;;;;;;;5.35;3.20;;;;;;;;;;6199630;28;20047;-66
2021/11/07 06:36:35;;;;;;;5.32;3.00;;;;;;;;;;6195468;28;20047;-65
2021/11/07 06:39:38;;;;;;;4.18;2.95;;;;;;;;;;6204230;28;20696;-65
2021/11/07 06:42:39;;;;;;;5.03;3.30;;;;;;;;;;6191640;28;20137;-65
2021/11/07 06:45:41;;;;;;;8.15;4.28;;;;;;;;;;6195097;28;20200;-66
2021/11/07 06:48:44;;;;;;;4.68;3.10;;;;;;;;;;6197424;28;20049;-65
2021/11/07 06:51:46;;;;;;;6.25;3.17;;;;;;;;;;6192840;28;20046;-65
2021/11/07 06:54:49;;;;;;;6.22;3.30;;;;;;;;;;6198627;28;20038;-65
2021/11/07 06:57:51;;;;;;;7.20;3.58;;;;;;;;;;6190067;28;20042;-65
2021/11/07 07:00:52;;;;;;;5.07;3.35;;;;;;;;;;6193991;28;20046;-66
2021/11/07 07:03:53;;;;;;;5.20;3.17;;;;;;;;;;6206534;28;20239;-66
2021/11/07 07:06:56;;;;;;;6.55;3.50;;;;;;;;;;6190470;28;20050;-65
2021/11/07 07:10:00;;;;;;;5.45;3.20;;;;;;;;;;6198228;28;20066;-65
2021/11/07 07:13:05;;;;;;;5.70;3.30;;;;;;;;;;6196711;28;20049;-65
2021/11/07 07:16:17;;;;;;;6.18;3.33;;;;;;;;;;6189939;28;20050;-65
2021/11/07 07:23:03;;;;;;;9.45;4.00;;;;;;;;;;6188756;28;20042;-64
2021/11/07 07:29:52;;;;;;;6.75;4.35;;;;;;;;;;6204462;28;20529;-65
2021/11/07 07:33:01;;;;;;;7.05;3.92;;;;;;;;;;6188112;28;20387;-65
2021/11/07 07:36:02;;;;;;;6.07;4.13;;;;;;;;;;6190501;28;20057;-66
2021/11/07 07:39:04;;;;;;;6.22;4.32;;;;;;;;;;6203203;28;20100;-65
2021/11/07 07:42:07;;;;;;;6.88;4.88;;;;;;;;;;6195898;28;20054;-65
2021/11/07 07:45:08;;;;;;;5.18;3.95;;;;;;;;;;6197057;28;20588;-65
2021/11/07 07:48:10;;;;;;;8.02;4.75;;;;;;;;;;6188691;28;20081;-65
2021/11/07 07:51:13;;;;;;;8.70;4.57;;;;;;;;;;6188191;28;20590;-65
2021/11/07 07:54:15;;;;;;;6.55;4.55;;;;;;;;;;6205922;28;20042;-65
2021/11/07 07:57:17;;;;;;;5.50;4.50;;;;;;;;;;6195057;28;20070;-65
2021/11/07 08:00:20;;;;;;;7.38;4.85;;;;;;;;;;6190726;28;20689;-66
2021/11/07 08:03:22;;;;;;;6.85;4.65;;;;;;;;;;6197026;28;20526;-65
2021/11/07 08:06:23;;;;;;;7.22;4.70;;;;;;;;;;6196983;28;22134;-66
2021/11/07 08:09:26;;;;;;;8.27;4.85;;;;;;;;;;6197071;28;20137;-66
2021/11/07 08:12:28;;;;;;;7.47;4.82;;;;;;;;;;6192021;28;20077;-65
2021/11/07 08:15:30;;;;;;;7.50;5.18;;;;;;;;;;6189421;28;20038;-66
2021/11/07 08:18:33;;;;;;;7.10;4.82;;;;;;;;;;6196746;28;20410;-66
2021/11/07 08:21:38;;;;;;;7.43;5.03;;;;;;;;;;6189875;28;20062;-66
2021/11/07 08:24:40;;;;;;;10.02;5.82;;;;;;;;;;6204657;28;20531;-65
2021/11/07 08:27:45;;;;;;;7.10;5.20;;;;;;;;;;6190330;28;20057;-66
2021/11/07 08:30:49;;;;;;;7.78;5.40;;;;;;;;;;6180870;28;20047;-66
2021/11/07 08:33:50;;;;;;;8.90;5.75;;;;;;;;;;6198381;28;20689;-65
2021/11/07 08:36:57;;;;;;;8.85;5.82;;;;;;;;;;6194416;28;20138;-65
2021/11/07 08:40:00;;;;;;;10.77;6.10;;;;;;;;;;6201356;28;20051;-65
2021/11/07 08:43:08;;;;;;;10.18;6.40;;;;;;;;;;6192112;28;20149;-65
2021/11/07 09:02:59;;;;;;;8.23;6.13;;;;;;;;;;6189964;28;20042;-65
2021/11/07 09:06:14;;;;;;;10.25;6.75;;;;;;;;;;6184185;28;20172;-65
2021/11/07 09:09:16;;;;;;;9.88;6.63;;;;;;;;;;6196565;28;20125;-65
2021/11/07 09:12:17;;;;;;;12.13;6.80;;;;;;;;;;6190352;28;20136;-66
2021/11/07 09:15:21;;;;;;;9.75;6.60;;;;;;;;;;6190633;28;20181;-66
2021/11/07 09:18:23;;;;;;;11.23;6.45;;;;;;;;;;6192862;28;20050;-66
2021/11/07 09:21:28;;;;;;;9.35;5.90;;;;;;;;;;6187112;28;20046;-65
2021/11/07 09:24:33;;;;;;;10.60;6.82;;;;;;;;;;6197458;28;20042;-65
2021/11/07 09:27:39;;;;;;;11.30;6.78;;;;;;;;;;6188169;28;20057;-65
2021/11/07 09:30:49;;;;;;;10.90;6.65;;;;;;;;;;6186273;28;21001;-66
2021/11/07 09:34:04;;;;;;;7.15;4.68;;;;;;;;;;6196722;28;20046;-66
2021/11/07 09:37:07;;;;;;;8.15;5.75;;;;;;;;;;6192074;28;20149;-66
2021/11/07 09:40:12;;;;;;;8.10;6.32;;;;;;;;;;6195502;28;20099;-66
2021/11/07 09:43:21;;;;;;;7.63;5.60;;;;;;;;;;6196196;28;21696;-66
2021/11/07 09:46:34;;;;;;;9.50;6.00;;;;;;;;;;6193071;28;20505;-66
2021/11/07 09:49:44;;;;;;;9.93;6.45;;;;;;;;;;6204689;28;20050;-65
2021/11/07 09:52:48;;;;;;;7.82;5.68;;;;;;;;;;6194736;28;20045;-66
2021/11/07 09:55:50;;;;;;;8.32;5.75;;;;;;;;;;6197642;28;20068;-66
2021/11/07 09:58:53;;;;;;;10.82;7.40;;;;;;;;;;6208185;28;21347;-66
2021/11/07 10:01:58;;;;;;;9.32;6.90;;;;;;;;;;6187747;28;20046;-66
2021/11/07 10:05:01;;;;;;;7.28;5.72;;;;;;;;;;6199325;28;20050;-66
2021/11/07 10:08:04;;;;;;;8.73;6.60;;;;;;;;;;6194620;28;20043;-66
2021/11/07 10:11:08;;;;;;;9.40;7.05;;;;;;;;;;6196630;28;20109;-66
2021/11/07 10:14:14;;;;;;;8.82;6.50;;;;;;;;;;6209789;28;20061;-66
2021/11/07 10:17:28;;;;;;;10.75;7.38;;;;;;;;;;6197095;28;20101;-66
2021/11/07 10:20:33;;;;;;;10.27;7.00;;;;;;;;;;6205412;28;20045;-66
2021/11/07 10:23:38;;;;;;;9.73;7.38;;;;;;;;;;6215370;28;20058;-66
2021/11/07 10:26:41;;;;;;;10.00;7.07;;;;;;;;;;6206829;28;20149;-66
2021/11/07 10:29:45;;;;;;;;;;;;;;;;;;6217398;28;20041;-66
2021/11/07 10:33:11;;;;;;;8.93;7.22;;;;;;;;;;6200336;28;19921;-65
2021/11/07 10:36:40;;;;;;;8.07;6.53;;;;;;;;;;6204327;28;20057;-66
2021/11/07 10:46:42;;;;;;;9.43;6.93;;;;;;;;;;6206228;28;20486;-66
2021/11/07 10:53:12;;;;;;;9.85;6.90;;;;;;;;;;6212952;28;20401;-66
2021/11/07 10:56:14;;;;;;;10.18;6.78;;;;;;;;;;6195022;28;20068;-66
2021/11/07 10:59:16;;;;;;;9.45;6.97;;;;;;;;;;6202094;28;20144;-66
2021/11/07 11:02:33;;;;;;;9.48;6.97;;;;;;;;;;6186599;28;20256;-66
2021/11/07 11:05:39;;;;;;;10.15;6.60;;;;;;;;;;6187859;28;20038;-66
2021/11/07 11:08:43;;;;;;;8.40;6.93;;;;;;;;;;6198003;28;20061;-66
2021/11/07 11:11:46;;;;;;;8.93;6.82;;;;;;;;;;6194640;28;20610;-66
2021/11/07 11:15:02;;;;;;;8.00;6.60;;;;;;;;;;6205137;28;20057;-66
2021/11/07 11:18:13;;;;;;;8.90;6.22;;;;;;;;;;6193476;28;20076;-67
2021/11/07 11:21:33;;;;;;;9.13;6.88;;;;;;;;;;6175496;28;20088;-69
2021/11/07 11:24:42;;;;;;;11.13;6.90;;;;;;;;;;6173207;28;20128;-65
2021/11/07 11:27:53;;;;;;;8.85;6.72;;;;;;;;;;6171338;28;20092;-66
2021/11/07 11:34:14;;;;;;;8.57;6.60;;;;;;;;;;6174398;28;20065;-68
2021/11/07 11:37:21;;;;;;;8.32;7.05;;;;;;;;;;6173424;28;20057;-67
2021/11/07 11:40:26;;;;;;;9.18;6.40;;;;;;;;;;6168459;28;20655;-67
2021/11/07 11:43:32;;;;;;;9.13;7.05;;;;;;;;;;6174700;28;20184;-67
2021/11/07 11:46:42;;;;;;;9.35;6.57;;;;;;;;;;6163969;28;20061;-67
2021/11/07 11:50:00;;;;;;;8.93;7.35;;;;;;;;;;6176139;28;20503;-67
2021/11/07 11:56:39;;;;;;;10.23;7.60;;;;;;;;;;6271756;27;20691;-68
2021/11/07 11:59:46;;;;;;;11.52;7.43;;;;;;;;;;6244253;28;20046;-67
2021/11/07 12:02:50;;;;;;;12.93;8.30;;;;;;;;;;6224400;28;20056;-67
2021/11/07 12:05:54;;;;;;;10.63;7.57;;;;;;;;;;6231245;28;20045;-66
2021/11/07 12:09:19;;;;;;;10.20;7.75;;;;;;;;;;6243195;28;20037;-66
2021/11/07 12:12:31;;;;;;;11.57;8.05;;;;;;;;;;6222814;28;20057;-66
2021/11/07 12:15:48;;;;;;;10.07;7.40;;;;;;;;;;6226835;28;20141;-66
2021/11/07 12:19:08;;;;;;;10.32;7.28;;;;;;;;;;6239465;28;20511;-66
2021/11/07 12:22:11;;;;;;;12.32;8.10;;;;;;;;;;6231991;28;20038;-65
2021/11/07 12:25:13;;;;;;;;;;;;;;;;;;6240398;28;20077;-66
2021/11/07 12:28:17;;;;;;;11.65;7.53;;;;;;;;;;6241593;28;19968;-67
2021/11/07 12:31:18;;;;;;;9.07;6.63;;;;;;;;;;6229745;28;20053;-67
2021/11/07 12:34:21;;;;;;;11.95;7.50;;;;;;;;;;6242399;28;20107;-65
2021/11/07 12:40:59;;;;;;;11.10;7.70;;;;;;;;;;6235978;28;20057;-63
2021/11/07 12:44:04;;;;;;;13.15;7.70;;;;;;;;;;6248039;28;20044;-64
2021/11/07 12:47:09;;;;;;;11.70;6.60;;;;;;;;;;6233208;28;20068;-64
2021/11/07 12:50:11;;;;;;;9.98;6.35;;;;;;;;;;6241042;28;20045;-65
2021/11/07 12:53:13;;;;;;;11.70;6.70;;;;;;;;;;6246290;28;20055;-64
2021/11/07 12:56:14;;;;;;;12.02;6.90;;;;;;;;;;6238823;28;20041;-66
2021/11/07 12:59:18;;;;;;;9.43;5.68;;;;;;;;;;6252263;28;20060;-64
2021/11/07 13:02:22;;;;;;;8.25;5.75;;;;;;;;;;6234917;28;20508;-67
2021/11/07 13:05:28;;;;;;;8.52;5.50;;;;;;;;;;6235151;28;20146;-65
2021/11/07 13:08:32;;;;;;;7.45;5.20;;;;;;;;;;6231493;28;20037;-64
2021/11/07 13:11:38;;;;;;;8.13;5.47;;;;;;;;;;6224480;28;20065;-66
2021/11/07 13:15:05;;;;;;;8.15;5.70;;;;;;;;;;6234377;28;20049;-67
2021/11/07 13:18:36;;;;;;;9.43;5.38;;;;;;;;;;6219433;28;20056;-68
2021/11/07 13:21:46;;;;;;;6.53;4.55;;;;;;;;;;6225638;28;20045;-68
2021/11/07 13:25:07;;;;;;;8.38;5.30;;;;;;;;;;6234743;28;20046;-70
2021/11/07 13:28:16;;;;;;;8.07;5.22;;;;;;;;;;6226022;28;20191;-67
2021/11/07 13:31:21;;;;;;;7.72;5.03;;;;;;;;;;6216371;28;20046;-67
2021/11/07 13:34:22;;;;;;;9.63;5.40;;;;;;;;;;6239440;28;20056;-72
2021/11/07 13:37:25;;;;;;;7.57;4.65;;;;;;;;;;6223287;28;20075;-68
2021/11/07 13:40:29;;;;;;;6.57;4.50;;;;;;;;;;6219508;28;20629;-69
2021/11/07 13:43:31;;;;;;;7.15;4.55;;;;;;;;;;6234415;28;20050;-68
2021/11/07 13:46:35;;;;;;;7.20;4.63;;;;;;;;;;6215314;28;20058;-67
2021/11/07 13:49:45;;;;;;;7.30;4.72;;;;;;;;;;6217578;28;20100;-66
2021/11/07 13:52:51;;;;;;;7.25;4.97;;;;;;;;;;6216783;28;20053;-68
2021/11/07 13:55:53;;;;;;;7.13;4.70;;;;;;;;;;6224704;28;20058;-72
2021/11/07 13:58:55;;;;;;;7.65;4.90;;;;;;;;;;6237757;28;20048;-66
2021/11/07 14:01:57;;;;;;;7.78;5.30;;;;;;;;;;6212582;28;20095;-69
2021/11/07 14:04:59;;;;;;;8.73;5.60;;;;;;;;;;6232597;28;20652;-66
2021/11/07 14:08:02;;;;;;;6.90;5.20;;;;;;;;;;6225507;28;20041;-68
2021/11/07 14:11:03;;;;;;;6.88;4.88;;;;;;;;;;6219683;28;20060;-68
2021/11/07 14:14:07;;;;;;;7.35;4.65;;;;;;;;;;6236162;28;20061;-68
2021/11/07 14:17:08;;;;;;;;;;;;;;;;;;6204692;28;20052;-67
2021/11/07 14:20:12;;;;;;;5.40;4.25;;;;;;;;;;6214795;28;19926;-72
2021/11/07 14:23:18;;;;;;;;;;;;;;;;;;6218277;28;20187;-68
2021/11/07 14:26:23;;;;;;;5.57;4.45;;;;;;;;;;6216586;28;20031;-69
2021/11/07 14:29:32;;;;;;;6.75;4.93;;;;;;;;;;6234706;28;20042;-67
2021/11/07 14:32:35;;;;;;;7.10;4.60;;;;;;;;;;6215173;28;20919;-66
2021/11/07 14:35:39;;;;;;;6.55;5.20;;;;;;;;;;6217179;28;20096;-66
2021/11/07 14:38:44;;;;;;;7.72;5.18;;;;;;;;;;6234688;28;20433;-66
2021/11/07 14:41:53;;;;;;;7.85;5.15;;;;;;;;;;6223502;28;20038;-67
2021/11/07 14:45:13;;;;;;;8.52;5.00;;;;;;;;;;6222212;28;20065;-66
2021/11/07 14:51:44;;;;;;;7.45;5.18;;;;;;;;;;6225658;28;20056;-66
2021/11/07 14:54:49;;;;;;;5.93;4.78;;;;;;;;;;6234056;28;20058;-66
2021/11/07 15:01:29;;;;;;;8.27;5.90;;;;;;;;;;6205777;28;20129;-65
2021/11/07 15:04:43;;;;;;;6.22;5.05;;;;;;;;;;6224091;28;20068;-65
2021/11/07 15:07:49;;;;;;;8.27;5.60;;;;;;;;;;6209780;28;20133;-66
2021/11/07 15:10:56;;;;;;;8.13;5.90;;;;;;;;;;6213364;28;20494;-66
2021/11/07 15:14:01;;;;;;;8.35;5.35;;;;;;;;;;6221951;28;20053;-66
2021/11/07 15:17:31;;;;;;;12.82;5.25;;;;;;;;;;6209474;28;20557;-66
2021/11/07 15:20:36;;;;;;;7.05;5.07;;;;;;;;;;6216023;28;20049;-66
2021/11/07 15:23:41;;;;;;;6.78;5.03;;;;;;;;;;6219874;28;20054;-66
2021/11/07 15:26:49;;;;;;;8.02;5.20;;;;;;;;;;6211933;28;20084;-66
2021/11/07 15:29:56;;;;;;;7.55;5.10;;;;;;;;;;6224032;28;20053;-66
2021/11/07 15:33:07;;;;;;;7.93;5.05;;;;;;;;;;6202061;28;20203;-66
2021/11/07 15:36:08;;;;;;;9.65;5.82;;;;;;;;;;6208694;28;20052;-66
2021/11/07 15:39:16;;;;;;;9.98;6.40;;;;;;;;;;6220308;28;20041;-66
2021/11/07 15:42:18;;;;;;;9.82;6.03;;;;;;;;;;6215060;28;20760;-66
2021/11/07 15:45:22;;;;;;;9.57;6.60;;;;;;;;;;6218532;28;20641;-66
2021/11/07 15:48:26;;;;;;;8.85;6.13;;;;;;;;;;6216194;28;20127;-67
2021/11/07 15:51:32;;;;;;;9.00;6.60;;;;;;;;;;6213711;28;20042;-66
2021/11/07 15:54:40;;;;;;;10.48;6.93;;;;;;;;;;6226751;28;20505;-66
2021/11/07 15:57:51;;;;;;;10.27;6.85;;;;;;;;;;6214115;28;20144;-66
2021/11/07 16:01:02;;;;;;;9.95;6.40;;;;;;;;;;6212543;28;20053;-66
2021/11/07 16:04:09;;;;;;;9.57;6.55;;;;;;;;;;6223729;28;20123;-66
2021/11/07 16:07:14;;;;;;;8.88;6.80;;;;;;;;;;6212344;28;20064;-65
2021/11/07 16:10:21;;;;;;;10.35;6.90;;;;;;;;;;6216547;28;20184;-66
2021/11/07 16:13:28;;;;;;;9.05;6.93;;;;;;;;;;6219679;28;20119;-65
2021/11/07 16:16:39;;;;;;;10.43;7.22;;;;;;;;;;6209169;28;20137;-65
2021/11/07 16:19:43;;;;;;;9.45;7.05;;;;;;;;;;6218609;28;20081;-65
2021/11/07 16:22:47;;;;;;;10.07;7.07;;;;;;;;;;6207854;28;20141;-65
2021/11/07 16:25:51;;;;;;;9.52;7.30;;;;;;;;;;6208689;28;20065;-66
2021/11/07 16:28:53;;;;;;;10.82;7.75;;;;;;;;;;6227244;28;20057;-65
2021/11/07 16:32:04;;;;;;;10.50;7.55;;;;;;;;;;6205073;28;20045;-64
2021/11/07 16:35:09;;;;;;;10.60;8.20;;;;;;;;;;6212020;28;20050;-65
2021/11/07 16:38:18;;;;;;;10.90;7.55;;;;;;;;;;6216426;28;20132;-64
2021/11/07 16:41:26;;;;;;;11.60;7.97;;;;;;;;;;6209991;28;20077;-65
2021/11/07 16:44:34;;;;;;;9.90;7.85;;;;;;;;;;6228522;28;21105;-65
2021/11/07 16:47:37;;;;;;;9.55;8.05;;;;;;;;;;6206021;28;20046;-65
2021/11/07 16:50:48;;;;;;;12.18;8.10;;;;;;;;;;6215059;28;20412;-65
2021/11/07 16:53:54;;;;;;;11.80;8.00;;;;;;;;;;6241332;28;20841;-65
2021/11/07 16:56:57;;;;;;;14.80;8.32;;;;;;;;;;6238163;28;20136;-65
2021/11/07 17:00:03;;;;;;;13.30;8.57;;;;;;;;;;6228158;28;20672;-65
2021/11/07 17:03:09;;;;;;;11.50;8.85;;;;;;;;;;6206058;28;20155;-65
2021/11/07 17:06:24;;;;;;;13.52;8.93;;;;;;;;;;6213555;28;20042;-66
2021/11/07 17:09:33;;;;;;;12.52;8.80;;;;;;;;;;6227100;28;20147;-66
2021/11/07 17:12:38;;;;;;;12.27;8.57;;;;;;;;;;6214443;28;20465;-64
2021/11/07 17:15:42;;;;;;;13.55;9.38;;;;;;;;;;6211578;28;20124;-67
2021/11/07 17:18:45;;;;;;;17.98;10.50;;;;;;;;;;6221401;28;20090;-64
2021/11/07 17:22:04;;;;;;;13.25;8.98;;;;;;;;;;6216951;28;20057;-64
2021/11/07 17:25:07;;;;;;;14.32;9.05;;;;;;;;;;6221762;28;20041;-64
2021/11/07 17:28:17;;;;;;;13.85;8.80;;;;;;;;;;6227058;28;20050;-64
2021/11/07 17:31:23;;;;;;;15.13;8.88;;;;;;;;;;6208273;28;20176;-64
2021/11/07 17:34:28;;;;;;;11.82;8.40;;;;;;;;;;6225612;28;20038;-64
2021/11/07 17:37:36;;;;;;;13.95;9.05;;;;;;;;;;6220353;28;20077;-64
2021/11/07 17:41:01;;;;;;;13.43;8.38;;;;;;;;;;6216563;28;20080;-64
2021/11/07 17:57:36;;;;;;;12.65;7.65;;;;;;;;;;6168153;28;20495;-66
2021/11/07 18:00:42;;;;;;;11.18;7.43;;;;;;;;;;6211055;28;20469;-66
2021/11/07 18:03:49;;;;;;;14.45;8.85;;;;;;;;;;6224980;28;20058;-66
2021/11/07 18:06:54;;;;;;;13.27;8.38;;;;;;;;;;6214471;28;20783;-66
2021/11/07 18:09:59;;;;;;;13.15;8.30;;;;;;;;;;6230133;28;20037;-64
2021/11/07 18:13:05;;;;;;;12.77;8.45;;;;;;;;;;6215455;28;20057;-66
2021/11/07 18:16:07;;;;;;;13.50;8.75;;;;;;;;;;6212574;28;20053;-65
2021/11/07 18:19:09;;;;;;;12.13;8.57;;;;;;;;;;6222151;28;20046;-65
2021/11/07 18:22:17;;;;;;;13.25;8.70;;;;;;;;;;6216007;28;20068;-65
2021/11/07 18:25:24;;;;;;;11.23;8.35;;;;;;;;;;6215342;28;20131;-65
2021/11/07 18:28:25;;;;;;;14.40;8.65;;;;;;;;;;6223773;28;20042;-64
2021/11/07 18:31:28;;;;;;;17.63;10.52;;;;;;;;;;6210408;28;20050;-64
2021/11/07 18:34:29;;;;;;;13.70;9.32;;;;;;;;;;6220900;28;20103;-64
2021/11/07 18:37:31;;;;;;;13.65;8.98;;;;;;;;;;6204585;28;20628;-64
2021/11/07 18:40:32;;;;;;;12.15;8.82;;;;;;;;;;6217215;28;20082;-65
2021/11/07 18:43:34;;;;;;;13.43;9.05;;;;;;;;;;6230829;28;20045;-67
2021/11/07 18:46:36;;;;;;;14.63;10.05;;;;;;;;;;6222450;28;20130;-64
2021/11/07 18:49:39;;;;;;;14.25;9.00;;;;;;;;;;6231502;28;20714;-64
2021/11/07 18:52:41;;;;;;;13.57;8.98;;;;;;;;;;6228706;28;20045;-63
2021/11/07 18:55:42;;;;;;;12.75;9.32;;;;;;;;;;6228580;28;20513;-64
2021/11/07 18:58:44;;;;;;;14.85;9.80;;;;;;;;;;6233624;28;20054;-64
2021/11/07 19:01:46;;;;;;;13.93;9.27;;;;;;;;;;6217233;28;20400;-64
2021/11/07 19:04:48;;;;;;;12.65;9.45;;;;;;;;;;6226051;28;20049;-64
2021/11/07 19:07:49;;;;;;;12.65;8.85;;;;;;;;;;6212528;28;20616;-64
2021/11/07 19:10:53;;;;;;;12.23;9.02;;;;;;;;;;6220957;28;20464;-64
2021/11/07 19:13:55;;;;;;;15.27;10.48;;;;;;;;;;6235376;28;20046;-63
2021/11/07 19:16:58;;;;;;;14.27;9.68;;;;;;;;;;6214784;28;20126;-63
2021/11/07 19:20:03;;;;;;;13.68;9.45;;;;;;;;;;6231955;28;20204;-63
2021/11/07 19:23:05;;;;;;;16.13;9.80;;;;;;;;;;6218527;28;20085;-63
2021/11/07 19:26:07;;;;;;;12.40;9.02;;;;;;;;;;6224932;28;20570;-63
2021/11/07 19:29:09;;;;;;;14.32;9.93;;;;;;;;;;6235121;28;20136;-64